Wheat Ridge, CO (80033)

1:03 PM MDT on September 04, 2015 (GMT -0600)
Crown Hill Park | | Change Station
CLOSE
Current Station
Personal Weather Station
Location: Wheat Ridge, CO
Elevation: 5480 ft
Nearby Weather Stations

Elev 5480 ft 39.77 °N, 105.10 °W | Updated 4 minutes ago

Partly Cloudy
Partly Cloudy
81.5 °F
Feels Like 80 °F
N
5.0
Wind Variable Wind from South

Today
High -- | Low -- °F
--% Chance of Precip.
Yesterday
High -- | Low -- °F
Precip. -- in
6:31 AM 7:27 PM
Waning Gibbous, 57% visible
Pressure 30.04 in
Visibility 50.0 miles
Clouds Scattered Clouds 15000 ft
Mostly Cloudy 22000 ft
Heat Index 80 °F
Dew Point 49 °F
Humidity 32%
Rainfall 0.00 in
Snow Depth Not available.
UV 5 out of 12
Pollen 10.10 out of 12
Air Quality Not available.
Flu Activity Not available.
METAR KBJC 041845Z 14008KT 50SM SCT150 BKN220 29/05 A3004
Pressure 30.04 in
Visibility 50.0 miles
Clouds Scattered Clouds 15000 ft
Mostly Cloudy 22000 ft
Heat Index 80 °F
Dew Point 49 °F
Humidity 32%
Rainfall 0.00 in
Snow Depth Not available.
UV 5 out of 12
Pollen 10.10 out of 12
Air Quality Not available.
Flu Activity Not available.
METAR KBJC 041845Z 14008KT 50SM SCT150 BKN220 29/05 A3004

10-Day Weather Forecast

×

Almanac

Astronomy

Sep. 04, 2015 Rise Set
Actual Time
Civil Twilight
Nautical Twilight
Astronomical Twilight
Moon
Length of Visible Light
Length of Day
Tomorrow will be .
, % of the Moon is Illuminated

Today's Extremes

State Highs State Lows

Community

WunderPhotos

Upload Photos

1,852,267 photos uploaded!

WunderBlogs® & News

Nearby

Air Quality

  Air Quality AQ Index Pollutant
Not available.

Snow Depth

Station Depth Elevation

Earthquake Activity

City Distance Mag. Time & Date
Minimum magnitude displayed is 2.5.

Coastal Water Temperatures

Place Temperature

Stations

Nearby Weather Stations

Station Location Temp. Windchill Dew Point Humidity Wind Precip. Elev Updated Type